sensor_id;sensor_type;location;lat;lon;timestamp;P1;durP1;ratioP1;P2;durP2;ratioP2
72060;SDS011;59925;52.136;5.420;2022-12-18T00:01:20;34.77;;;13.53;;
72060;SDS011;59925;52.136;5.420;2022-12-18T00:03:54;39.92;;;13.70;;
72060;SDS011;59925;52.136;5.420;2022-12-18T00:06:22;33.30;;;13.20;;
72060;SDS011;59925;52.136;5.420;2022-12-18T00:08:49;37.22;;;13.15;;
72060;SDS011;59925;52.136;5.420;2022-12-18T00:11:20;37.95;;;14.60;;
72060;SDS011;59925;52.136;5.420;2022-12-18T00:13:49;40.40;;;13.97;;
72060;SDS011;59925;52.136;5.420;2022-12-18T00:16:16;40.35;;;13.52;;
72060;SDS011;59925;52.136;5.420;2022-12-18T00:18:47;53.40;;;17.10;;
72060;SDS011;59925;52.136;5.420;2022-12-18T00:21:15;45.47;;;16.23;;
72060;SDS011;59925;52.136;5.420;2022-12-18T00:23:42;31.80;;;13.35;;
72060;SDS011;59925;52.136;5.420;2022-12-18T00:26:10;40.97;;;13.37;;
72060;SDS011;59925;52.136;5.420;2022-12-18T00:28:42;47.60;;;15.55;;
72060;SDS011;59925;52.136;5.420;2022-12-18T00:31:10;44.83;;;14.48;;
72060;SDS011;59925;52.136;5.420;2022-12-18T00:33:38;45.83;;;15.68;;
72060;SDS011;59925;52.136;5.420;2022-12-18T00:36:06;37.13;;;13.95;;
72060;SDS011;59925;52.136;5.420;2022-12-18T00:38:35;41.57;;;16.03;;
72060;SDS011;59925;52.136;5.420;2022-12-18T00:41:01;50.38;;;16.95;;
72060;SDS011;59925;52.136;5.420;2022-12-18T00:43:28;34.35;;;11.73;;
72060;SDS011;59925;52.136;5.420;2022-12-18T00:45:55;41.08;;;14.30;;
72060;SDS011;59925;52.136;5.420;2022-12-18T00:48:22;44.80;;;14.73;;
72060;SDS011;59925;52.136;5.420;2022-12-18T00:50:49;43.03;;;15.23;;
72060;SDS011;59925;52.136;5.420;2022-12-18T00:53:16;39.95;;;15.75;;
72060;SDS011;59925;52.136;5.420;2022-12-18T00:55:43;47.25;;;16.83;;
72060;SDS011;59925;52.136;5.420;2022-12-18T00:58:09;41.78;;;15.80;;
72060;SDS011;59925;52.136;5.420;2022-12-18T01:00:37;38.45;;;14.68;;
72060;SDS011;59925;52.136;5.420;2022-12-18T01:03:04;39.57;;;14.17;;
72060;SDS011;59925;52.136;5.420;2022-12-18T01:05:31;35.67;;;13.90;;
72060;SDS011;59925;52.136;5.420;2022-12-18T01:07:58;37.90;;;14.23;;
72060;SDS011;59925;52.136;5.420;2022-12-18T01:10:26;41.70;;;14.68;;
72060;SDS011;59925;52.136;5.420;2022-12-18T01:12:52;38.08;;;14.70;;
72060;SDS011;59925;52.136;5.420;2022-12-18T01:15:19;36.73;;;13.67;;
72060;SDS011;59925;52.136;5.420;2022-12-18T01:17:45;46.80;;;16.00;;
72060;SDS011;59925;52.136;5.420;2022-12-18T01:20:12;41.25;;;13.98;;
72060;SDS011;59925;52.136;5.420;2022-12-18T01:22:39;41.70;;;14.98;;
72060;SDS011;59925;52.136;5.420;2022-12-18T01:25:05;39.72;;;14.90;;
72060;SDS011;59925;52.136;5.420;2022-12-18T01:27:33;36.37;;;14.30;;
72060;SDS011;59925;52.136;5.420;2022-12-18T01:30:00;45.35;;;15.93;;
72060;SDS011;59925;52.136;5.420;2022-12-18T01:32:28;35.47;;;14.02;;
72060;SDS011;59925;52.136;5.420;2022-12-18T01:34:56;35.20;;;14.48;;
72060;SDS011;59925;52.136;5.420;2022-12-18T01:37:23;39.67;;;16.05;;
72060;SDS011;59925;52.136;5.420;2022-12-18T01:39:49;37.30;;;13.43;;
72060;SDS011;59925;52.136;5.420;2022-12-18T01:42:16;42.33;;;14.90;;
72060;SDS011;59925;52.136;5.420;2022-12-18T01:50:20;36.33;;;14.02;;
72060;SDS011;59925;52.136;5.420;2022-12-18T01:53:11;41.90;;;14.20;;
72060;SDS011;59925;52.136;5.420;2022-12-18T01:55:42;46.75;;;16.27;;
72060;SDS011;59925;52.136;5.420;2022-12-18T01:58:12;42.65;;;14.32;;
72060;SDS011;59925;52.136;5.420;2022-12-18T02:00:39;42.15;;;14.88;;
72060;SDS011;59925;52.136;5.420;2022-12-18T02:03:06;37.70;;;14.20;;
72060;SDS011;59925;52.136;5.420;2022-12-18T02:05:39;45.00;;;15.77;;
72060;SDS011;59925;52.136;5.420;2022-12-18T02:11:10;36.13;;;14.27;;
72060;SDS011;59925;52.136;5.420;2022-12-18T02:19:05;40.00;;;14.63;;
72060;SDS011;59925;52.136;5.420;2022-12-18T02:21:44;37.05;;;12.90;;
72060;SDS011;59925;52.136;5.420;2022-12-18T02:24:35;41.28;;;14.10;;
72060;SDS011;59925;52.136;5.420;2022-12-18T02:27:11;41.67;;;14.70;;
72060;SDS011;59925;52.136;5.420;2022-12-18T02:29:57;36.13;;;13.43;;
72060;SDS011;59925;52.136;5.420;2022-12-18T02:32:27;38.50;;;14.30;;
72060;SDS011;59925;52.136;5.420;2022-12-18T02:34:57;34.08;;;13.07;;
72060;SDS011;59925;52.136;5.420;2022-12-18T02:37:26;38.40;;;13.88;;
72060;SDS011;59925;52.136;5.420;2022-12-18T02:39:54;38.03;;;13.93;;
72060;SDS011;59925;52.136;5.420;2022-12-18T02:42:23;40.92;;;13.68;;
72060;SDS011;59925;52.136;5.420;2022-12-18T02:44:51;26.93;;;12.63;;
72060;SDS011;59925;52.136;5.420;2022-12-18T02:47:19;31.05;;;12.82;;
72060;SDS011;59925;52.136;5.420;2022-12-18T03:01:42;29.30;;;11.32;;
72060;SDS011;59925;52.136;5.420;2022-12-18T03:04:40;38.40;;;12.73;;
72060;SDS011;59925;52.136;5.420;2022-12-18T03:07:18;29.40;;;10.65;;
72060;SDS011;59925;52.136;5.420;2022-12-18T03:09:50;33.53;;;13.10;;
72060;SDS011;59925;52.136;5.420;2022-12-18T03:12:28;29.80;;;12.07;;
72060;SDS011;59925;52.136;5.420;2022-12-18T03:15:07;31.52;;;12.95;;
72060;SDS011;59925;52.136;5.420;2022-12-18T03:17:44;29.88;;;12.63;;
72060;SDS011;59925;52.136;5.420;2022-12-18T03:20:16;32.72;;;12.00;;
72060;SDS011;59925;52.136;5.420;2022-12-18T03:22:46;31.05;;;10.90;;
72060;SDS011;59925;52.136;5.420;2022-12-18T03:25:18;31.97;;;11.20;;
72060;SDS011;59925;52.136;5.420;2022-12-18T03:27:49;32.65;;;12.98;;
72060;SDS011;59925;52.136;5.420;2022-12-18T03:30:21;29.73;;;12.73;;
72060;SDS011;59925;52.136;5.420;2022-12-18T03:35:26;24.05;;;10.48;;
72060;SDS011;59925;52.136;5.420;2022-12-18T03:37:57;27.17;;;12.13;;
72060;SDS011;59925;52.136;5.420;2022-12-18T03:40:26;25.55;;;10.50;;
72060;SDS011;59925;52.136;5.420;2022-12-18T03:43:07;32.45;;;12.73;;
72060;SDS011;59925;52.136;5.420;2022-12-18T03:45:46;24.48;;;10.65;;
72060;SDS011;59925;52.136;5.420;2022-12-18T03:50:56;33.43;;;11.53;;
72060;SDS011;59925;52.136;5.420;2022-12-18T03:53:32;31.27;;;10.48;;
72060;SDS011;59925;52.136;5.420;2022-12-18T03:56:11;26.92;;;11.23;;
72060;SDS011;59925;52.136;5.420;2022-12-18T03:58:41;28.52;;;11.25;;
72060;SDS011;59925;52.136;5.420;2022-12-18T04:01:12;27.20;;;10.75;;
72060;SDS011;59925;52.136;5.420;2022-12-18T04:03:41;30.47;;;11.67;;
72060;SDS011;59925;52.136;5.420;2022-12-18T04:06:10;22.05;;;10.88;;
72060;SDS011;59925;52.136;5.420;2022-12-18T04:08:37;24.42;;;10.43;;
72060;SDS011;59925;52.136;5.420;2022-12-18T04:11:06;31.40;;;11.07;;
72060;SDS011;59925;52.136;5.420;2022-12-18T04:13:33;22.85;;;9.60;;
72060;SDS011;59925;52.136;5.420;2022-12-18T04:16:02;23.70;;;10.20;;
72060;SDS011;59925;52.136;5.420;2022-12-18T04:18:30;32.88;;;12.48;;
72060;SDS011;59925;52.136;5.420;2022-12-18T04:20:56;23.25;;;10.68;;
72060;SDS011;59925;52.136;5.420;2022-12-18T04:23:23;24.70;;;10.68;;
72060;SDS011;59925;52.136;5.420;2022-12-18T04:25:49;25.80;;;10.48;;
72060;SDS011;59925;52.136;5.420;2022-12-18T04:28:16;30.87;;;10.87;;
72060;SDS011;59925;52.136;5.420;2022-12-18T04:30:43;29.88;;;11.45;;
72060;SDS011;59925;52.136;5.420;2022-12-18T04:33:10;21.30;;;9.65;;
72060;SDS011;59925;52.136;5.420;2022-12-18T04:35:38;23.92;;;10.25;;
72060;SDS011;59925;52.136;5.420;2022-12-18T04:38:05;24.15;;;10.95;;
72060;SDS011;59925;52.136;5.420;2022-12-18T04:40:32;21.63;;;9.47;;
72060;SDS011;59925;52.136;5.420;2022-12-18T04:43:02;25.17;;;9.45;;
72060;SDS011;59925;52.136;5.420;2022-12-18T04:45:30;20.83;;;10.25;;
72060;SDS011;59925;52.136;5.420;2022-12-18T04:47:57;22.17;;;9.70;;
72060;SDS011;59925;52.136;5.420;2022-12-18T04:50:24;20.83;;;8.82;;
72060;SDS011;59925;52.136;5.420;2022-12-18T04:52:51;22.50;;;10.07;;
72060;SDS011;59925;52.136;5.420;2022-12-18T04:55:17;18.52;;;9.65;;
72060;SDS011;59925;52.136;5.420;2022-12-18T04:57:43;26.83;;;10.60;;
72060;SDS011;59925;52.136;5.420;2022-12-18T05:00:10;20.85;;;9.65;;
72060;SDS011;59925;52.136;5.420;2022-12-18T05:02:37;23.00;;;10.07;;
72060;SDS011;59925;52.136;5.420;2022-12-18T05:05:04;20.33;;;9.87;;
72060;SDS011;59925;52.136;5.420;2022-12-18T05:07:31;21.05;;;9.10;;
72060;SDS011;59925;52.136;5.420;2022-12-18T05:09:57;16.98;;;8.38;;
72060;SDS011;59925;52.136;5.420;2022-12-18T05:12:24;16.80;;;7.70;;
72060;SDS011;59925;52.136;5.420;2022-12-18T05:14:50;19.80;;;7.57;;
72060;SDS011;59925;52.136;5.420;2022-12-18T05:17:17;20.57;;;9.17;;
72060;SDS011;59925;52.136;5.420;2022-12-18T05:19:43;22.88;;;8.60;;
72060;SDS011;59925;52.136;5.420;2022-12-18T05:22:10;23.23;;;10.15;;
72060;SDS011;59925;52.136;5.420;2022-12-18T05:24:37;15.20;;;8.20;;
72060;SDS011;59925;52.136;5.420;2022-12-18T05:27:04;16.85;;;7.50;;
72060;SDS011;59925;52.136;5.420;2022-12-18T05:29:30;20.73;;;7.80;;
72060;SDS011;59925;52.136;5.420;2022-12-18T05:31:57;22.02;;;8.55;;
72060;SDS011;59925;52.136;5.420;2022-12-18T05:34:23;21.70;;;8.10;;
72060;SDS011;59925;52.136;5.420;2022-12-18T05:36:49;19.95;;;8.02;;
72060;SDS011;59925;52.136;5.420;2022-12-18T05:39:16;16.17;;;7.43;;
72060;SDS011;59925;52.136;5.420;2022-12-18T05:41:42;14.33;;;7.57;;
72060;SDS011;59925;52.136;5.420;2022-12-18T05:44:09;15.60;;;7.32;;
72060;SDS011;59925;52.136;5.420;2022-12-18T05:46:35;19.15;;;7.15;;
72060;SDS011;59925;52.136;5.420;2022-12-18T05:49:02;15.02;;;7.28;;
72060;SDS011;59925;52.136;5.420;2022-12-18T05:51:28;17.40;;;7.85;;
72060;SDS011;59925;52.136;5.420;2022-12-18T05:53:55;16.07;;;7.00;;
72060;SDS011;59925;52.136;5.420;2022-12-18T05:56:21;16.50;;;6.70;;
72060;SDS011;59925;52.136;5.420;2022-12-18T05:58:52;14.35;;;7.32;;
72060;SDS011;59925;52.136;5.420;2022-12-18T06:01:21;15.23;;;6.45;;
72060;SDS011;59925;52.136;5.420;2022-12-18T06:03:49;18.00;;;6.57;;
72060;SDS011;59925;52.136;5.420;2022-12-18T06:06:20;18.27;;;8.07;;
72060;SDS011;59925;52.136;5.420;2022-12-18T06:08:49;16.45;;;7.93;;
72060;SDS011;59925;52.136;5.420;2022-12-18T06:11:17;15.57;;;7.03;;
72060;SDS011;59925;52.136;5.420;2022-12-18T06:13:49;13.68;;;7.15;;
72060;SDS011;59925;52.136;5.420;2022-12-18T06:16:23;12.98;;;6.47;;
72060;SDS011;59925;52.136;5.420;2022-12-18T06:18:50;21.47;;;7.70;;
72060;SDS011;59925;52.136;5.420;2022-12-18T06:21:16;13.57;;;7.18;;
72060;SDS011;59925;52.136;5.420;2022-12-18T06:23:43;14.75;;;6.82;;
72060;SDS011;59925;52.136;5.420;2022-12-18T06:26:10;19.48;;;7.82;;
72060;SDS011;59925;52.136;5.420;2022-12-18T06:28:38;16.17;;;7.13;;
72060;SDS011;59925;52.136;5.420;2022-12-18T06:31:04;20.47;;;7.47;;
72060;SDS011;59925;52.136;5.420;2022-12-18T06:33:32;16.17;;;7.05;;
72060;SDS011;59925;52.136;5.420;2022-12-18T06:36:03;14.75;;;6.65;;
72060;SDS011;59925;52.136;5.420;2022-12-18T06:38:34;14.68;;;7.30;;
72060;SDS011;59925;52.136;5.420;2022-12-18T06:41:08;15.70;;;6.47;;
72060;SDS011;59925;52.136;5.420;2022-12-18T06:43:35;24.33;;;7.50;;
72060;SDS011;59925;52.136;5.420;2022-12-18T06:46:03;16.02;;;7.80;;
72060;SDS011;59925;52.136;5.420;2022-12-18T06:48:31;15.55;;;6.72;;
72060;SDS011;59925;52.136;5.420;2022-12-18T06:50:58;17.60;;;7.72;;
72060;SDS011;59925;52.136;5.420;2022-12-18T06:53:25;13.82;;;6.63;;
72060;SDS011;59925;52.136;5.420;2022-12-18T06:55:51;14.70;;;6.87;;
72060;SDS011;59925;52.136;5.420;2022-12-18T06:58:18;14.55;;;6.30;;
72060;SDS011;59925;52.136;5.420;2022-12-18T07:00:44;14.50;;;6.60;;
72060;SDS011;59925;52.136;5.420;2022-12-18T07:03:11;16.08;;;6.55;;
72060;SDS011;59925;52.136;5.420;2022-12-18T07:05:40;16.60;;;7.50;;
72060;SDS011;59925;52.136;5.420;2022-12-18T07:08:06;16.93;;;7.90;;
72060;SDS011;59925;52.136;5.420;2022-12-18T07:10:33;15.57;;;7.38;;
72060;SDS011;59925;52.136;5.420;2022-12-18T07:12:59;13.95;;;7.03;;
72060;SDS011;59925;52.136;5.420;2022-12-18T07:15:26;16.38;;;7.40;;
72060;SDS011;59925;52.136;5.420;2022-12-18T07:17:52;13.20;;;6.47;;
72060;SDS011;59925;52.136;5.420;2022-12-18T07:20:18;12.53;;;6.23;;
72060;SDS011;59925;52.136;5.420;2022-12-18T07:22:45;14.88;;;7.95;;
72060;SDS011;59925;52.136;5.420;2022-12-18T07:25:11;14.88;;;8.00;;
72060;SDS011;59925;52.136;5.420;2022-12-18T07:27:38;17.73;;;7.68;;
72060;SDS011;59925;52.136;5.420;2022-12-18T07:30:04;16.67;;;7.80;;
72060;SDS011;59925;52.136;5.420;2022-12-18T07:32:31;15.73;;;6.40;;
72060;SDS011;59925;52.136;5.420;2022-12-18T07:34:58;14.43;;;6.72;;
72060;SDS011;59925;52.136;5.420;2022-12-18T07:37:24;15.98;;;7.38;;
72060;SDS011;59925;52.136;5.420;2022-12-18T07:39:51;16.60;;;6.68;;
72060;SDS011;59925;52.136;5.420;2022-12-18T07:42:17;14.02;;;6.15;;
72060;SDS011;59925;52.136;5.420;2022-12-18T07:44:59;14.47;;;7.33;;
72060;SDS011;59925;52.136;5.420;2022-12-18T07:47:27;15.07;;;6.78;;
72060;SDS011;59925;52.136;5.420;2022-12-18T07:49:54;11.10;;;5.93;;
72060;SDS011;59925;52.136;5.420;2022-12-18T07:52:21;13.93;;;7.13;;
72060;SDS011;59925;52.136;5.420;2022-12-18T07:54:51;11.77;;;6.80;;
72060;SDS011;59925;52.136;5.420;2022-12-18T07:57:18;12.83;;;6.47;;
72060;SDS011;59925;52.136;5.420;2022-12-18T08:00:04;12.70;;;6.10;;
72060;SDS011;59925;52.136;5.420;2022-12-18T08:02:31;14.27;;;5.93;;
72060;SDS011;59925;52.136;5.420;2022-12-18T08:04:58;12.85;;;6.20;;
72060;SDS011;59925;52.136;5.420;2022-12-18T08:07:24;14.13;;;6.45;;
72060;SDS011;59925;52.136;5.420;2022-12-18T08:09:51;13.67;;;6.27;;
72060;SDS011;59925;52.136;5.420;2022-12-18T08:12:17;12.48;;;6.95;;
72060;SDS011;59925;52.136;5.420;2022-12-18T08:14:44;13.73;;;7.55;;
72060;SDS011;59925;52.136;5.420;2022-12-18T08:17:10;13.98;;;6.90;;
72060;SDS011;59925;52.136;5.420;2022-12-18T08:19:37;12.20;;;6.65;;
72060;SDS011;59925;52.136;5.420;2022-12-18T08:22:03;15.33;;;7.20;;
72060;SDS011;59925;52.136;5.420;2022-12-18T08:24:30;12.50;;;5.93;;
72060;SDS011;59925;52.136;5.420;2022-12-18T08:26:56;15.82;;;7.05;;
72060;SDS011;59925;52.136;5.420;2022-12-18T08:29:43;13.25;;;6.28;;
72060;SDS011;59925;52.136;5.420;2022-12-18T08:32:09;11.88;;;6.07;;
72060;SDS011;59925;52.136;5.420;2022-12-18T08:34:36;16.37;;;7.37;;
72060;SDS011;59925;52.136;5.420;2022-12-18T08:37:02;16.98;;;7.68;;
72060;SDS011;59925;52.136;5.420;2022-12-18T08:39:29;19.40;;;7.30;;
72060;SDS011;59925;52.136;5.420;2022-12-18T08:41:55;17.13;;;7.85;;
72060;SDS011;59925;52.136;5.420;2022-12-18T08:44:41;12.77;;;6.35;;
72060;SDS011;59925;52.136;5.420;2022-12-18T08:47:07;12.03;;;6.87;;
72060;SDS011;59925;52.136;5.420;2022-12-18T08:49:34;17.65;;;7.65;;
72060;SDS011;59925;52.136;5.420;2022-12-18T08:52:01;18.40;;;8.05;;
72060;SDS011;59925;52.136;5.420;2022-12-18T08:54:28;12.43;;;7.20;;
72060;SDS011;59925;52.136;5.420;2022-12-18T08:56:55;16.42;;;7.05;;
72060;SDS011;59925;52.136;5.420;2022-12-18T08:59:21;18.23;;;7.53;;
72060;SDS011;59925;52.136;5.420;2022-12-18T09:01:49;13.98;;;6.15;;
72060;SDS011;59925;52.136;5.420;2022-12-18T09:04:15;16.45;;;7.10;;
72060;SDS011;59925;52.136;5.420;2022-12-18T09:06:42;12.48;;;6.75;;
72060;SDS011;59925;52.136;5.420;2022-12-18T09:09:09;15.45;;;7.45;;
72060;SDS011;59925;52.136;5.420;2022-12-18T09:11:35;13.67;;;7.33;;
72060;SDS011;59925;52.136;5.420;2022-12-18T09:14:02;14.52;;;6.72;;
72060;SDS011;59925;52.136;5.420;2022-12-18T09:16:29;17.83;;;8.73;;
72060;SDS011;59925;52.136;5.420;2022-12-18T09:18:58;16.92;;;8.10;;
72060;SDS011;59925;52.136;5.420;2022-12-18T09:21:26;15.40;;;7.30;;
72060;SDS011;59925;52.136;5.420;2022-12-18T09:23:55;17.03;;;7.77;;
72060;SDS011;59925;52.136;5.420;2022-12-18T09:26:22;17.00;;;7.35;;
72060;SDS011;59925;52.136;5.420;2022-12-18T09:28:49;20.80;;;7.63;;
72060;SDS011;59925;52.136;5.420;2022-12-18T09:31:17;18.67;;;7.40;;
72060;SDS011;59925;52.136;5.420;2022-12-18T09:33:45;11.32;;;6.18;;
72060;SDS011;59925;52.136;5.420;2022-12-18T09:36:12;14.33;;;7.17;;
72060;SDS011;59925;52.136;5.420;2022-12-18T09:38:41;14.02;;;6.97;;
72060;SDS011;59925;52.136;5.420;2022-12-18T09:49:45;13.20;;;6.53;;
72060;SDS011;59925;52.136;5.420;2022-12-18T09:57:34;12.23;;;6.95;;
72060;SDS011;59925;52.136;5.420;2022-12-18T10:00:11;14.27;;;6.65;;
72060;SDS011;59925;52.136;5.420;2022-12-18T10:02:44;12.17;;;6.00;;
72060;SDS011;59925;52.136;5.420;2022-12-18T10:05:28;13.48;;;6.80;;
72060;SDS011;59925;52.136;5.420;2022-12-18T10:08:22;13.27;;;6.15;;
72060;SDS011;59925;52.136;5.420;2022-12-18T10:19:21;13.05;;;5.88;;
72060;SDS011;59925;52.136;5.420;2022-12-18T10:27:41;13.05;;;5.63;;
72060;SDS011;59925;52.136;5.420;2022-12-18T10:30:18;13.77;;;5.80;;
72060;SDS011;59925;52.136;5.420;2022-12-18T10:32:46;12.80;;;6.35;;
72060;SDS011;59925;52.136;5.420;2022-12-18T10:35:20;12.27;;;5.25;;
72060;SDS011;59925;52.136;5.420;2022-12-18T10:43:30;11.70;;;6.10;;
72060;SDS011;59925;52.136;5.420;2022-12-18T10:46:23;11.45;;;6.07;;
72060;SDS011;59925;52.136;5.420;2022-12-18T10:48:50;15.50;;;6.47;;
72060;SDS011;59925;52.136;5.420;2022-12-18T10:51:23;12.52;;;5.80;;
72060;SDS011;59925;52.136;5.420;2022-12-18T10:53:57;15.05;;;7.18;;
72060;SDS011;59925;52.136;5.420;2022-12-18T10:56:28;13.93;;;5.90;;
72060;SDS011;59925;52.136;5.420;2022-12-18T10:59:01;13.98;;;6.10;;
72060;SDS011;59925;52.136;5.420;2022-12-18T11:04:19;14.27;;;6.38;;
72060;SDS011;59925;52.136;5.420;2022-12-18T11:06:59;14.52;;;6.13;;
72060;SDS011;59925;52.136;5.420;2022-12-18T11:09:27;11.57;;;5.77;;
72060;SDS011;59925;52.136;5.420;2022-12-18T11:11:55;10.55;;;5.65;;
72060;SDS011;59925;52.136;5.420;2022-12-18T11:16:53;15.52;;;5.97;;
72060;SDS011;59925;52.136;5.420;2022-12-18T11:19:41;13.48;;;6.30;;
72060;SDS011;59925;52.136;5.420;2022-12-18T11:22:21;11.10;;;5.53;;
72060;SDS011;59925;52.136;5.420;2022-12-18T11:24:58;10.23;;;5.40;;
72060;SDS011;59925;52.136;5.420;2022-12-18T11:27:48;14.38;;;6.68;;
72060;SDS011;59925;52.136;5.420;2022-12-18T11:30:26;13.38;;;5.88;;
72060;SDS011;59925;52.136;5.420;2022-12-18T11:32:58;12.75;;;6.07;;
72060;SDS011;59925;52.136;5.420;2022-12-18T11:38:20;11.60;;;5.28;;
72060;SDS011;59925;52.136;5.420;2022-12-18T11:40:59;12.32;;;5.63;;
72060;SDS011;59925;52.136;5.420;2022-12-18T11:43:45;15.82;;;6.05;;
72060;SDS011;59925;52.136;5.420;2022-12-18T11:46:30;10.80;;;5.75;;
72060;SDS011;59925;52.136;5.420;2022-12-18T11:49:07;14.70;;;6.00;;
72060;SDS011;59925;52.136;5.420;2022-12-18T11:51:48;14.52;;;6.18;;
72060;SDS011;59925;52.136;5.420;2022-12-18T11:54:19;10.82;;;5.75;;
72060;SDS011;59925;52.136;5.420;2022-12-18T11:56:51;13.02;;;6.07;;
72060;SDS011;59925;52.136;5.420;2022-12-18T12:02:15;11.20;;;5.13;;
72060;SDS011;59925;52.136;5.420;2022-12-18T12:13:30;12.43;;;6.05;;
72060;SDS011;59925;52.136;5.420;2022-12-18T12:21:41;16.73;;;6.75;;
72060;SDS011;59925;52.136;5.420;2022-12-18T12:27:01;13.00;;;6.60;;
72060;SDS011;59925;52.136;5.420;2022-12-18T12:32:29;13.73;;;6.10;;
72060;SDS011;59925;52.136;5.420;2022-12-18T12:35:39;14.98;;;6.18;;
72060;SDS011;59925;52.136;5.420;2022-12-18T12:41:18;14.00;;;6.22;;
72060;SDS011;59925;52.136;5.420;2022-12-18T12:44:08;11.73;;;6.23;;
72060;SDS011;59925;52.136;5.420;2022-12-18T12:46:42;13.63;;;6.63;;
72060;SDS011;59925;52.136;5.420;2022-12-18T12:49:14;15.00;;;6.28;;
72060;SDS011;59925;52.136;5.420;2022-12-18T12:51:44;13.65;;;6.28;;
72060;SDS011;59925;52.136;5.420;2022-12-18T12:54:15;15.02;;;7.32;;
72060;SDS011;59925;52.136;5.420;2022-12-18T12:57:03;14.83;;;7.03;;
72060;SDS011;59925;52.136;5.420;2022-12-18T13:02:39;11.07;;;5.68;;
72060;SDS011;59925;52.136;5.420;2022-12-18T13:05:31;14.73;;;5.35;;
72060;SDS011;59925;52.136;5.420;2022-12-18T13:08:27;11.40;;;5.93;;
72060;SDS011;59925;52.136;5.420;2022-12-18T13:10:59;15.57;;;6.53;;
72060;SDS011;59925;52.136;5.420;2022-12-18T13:13:54;12.70;;;6.05;;
72060;SDS011;59925;52.136;5.420;2022-12-18T13:16:23;11.77;;;6.00;;
72060;SDS011;59925;52.136;5.420;2022-12-18T13:18:51;16.00;;;6.93;;
72060;SDS011;59925;52.136;5.420;2022-12-18T13:21:21;14.43;;;6.32;;
72060;SDS011;59925;52.136;5.420;2022-12-18T13:23:53;15.47;;;6.70;;
72060;SDS011;59925;52.136;5.420;2022-12-18T13:28:54;13.07;;;6.55;;
72060;SDS011;59925;52.136;5.420;2022-12-18T13:36:54;14.27;;;5.87;;
72060;SDS011;59925;52.136;5.420;2022-12-18T13:39:24;14.77;;;7.60;;
72060;SDS011;59925;52.136;5.420;2022-12-18T13:44:37;11.02;;;5.90;;
72060;SDS011;59925;52.136;5.420;2022-12-18T13:47:31;13.00;;;6.60;;
72060;SDS011;59925;52.136;5.420;2022-12-18T13:50:00;17.07;;;6.43;;
72060;SDS011;59925;52.136;5.420;2022-12-18T13:52:33;14.35;;;6.43;;
72060;SDS011;59925;52.136;5.420;2022-12-18T13:55:04;11.05;;;6.20;;
72060;SDS011;59925;52.136;5.420;2022-12-18T13:57:37;14.35;;;6.75;;
72060;SDS011;59925;52.136;5.420;2022-12-18T14:02:58;12.23;;;6.77;;
72060;SDS011;59925;52.136;5.420;2022-12-18T14:05:26;16.38;;;6.72;;
72060;SDS011;59925;52.136;5.420;2022-12-18T14:08:01;13.85;;;6.70;;
72060;SDS011;59925;52.136;5.420;2022-12-18T14:10:32;13.20;;;6.32;;
72060;SDS011;59925;52.136;5.420;2022-12-18T14:13:23;13.48;;;6.43;;
72060;SDS011;59925;52.136;5.420;2022-12-18T14:15:55;13.40;;;6.23;;
72060;SDS011;59925;52.136;5.420;2022-12-18T14:20:57;15.85;;;6.40;;
72060;SDS011;59925;52.136;5.420;2022-12-18T14:32:05;15.95;;;7.75;;
72060;SDS011;59925;52.136;5.420;2022-12-18T14:34:43;16.20;;;7.82;;
72060;SDS011;59925;52.136;5.420;2022-12-18T14:37:15;12.85;;;6.60;;
72060;SDS011;59925;52.136;5.420;2022-12-18T14:39:58;17.33;;;7.15;;
72060;SDS011;59925;52.136;5.420;2022-12-18T14:42:34;12.60;;;6.43;;
72060;SDS011;59925;52.136;5.420;2022-12-18T14:51:03;15.27;;;6.18;;
72060;SDS011;59925;52.136;5.420;2022-12-18T14:53:42;14.85;;;6.43;;
72060;SDS011;59925;52.136;5.420;2022-12-18T14:56:26;16.07;;;7.13;;
72060;SDS011;59925;52.136;5.420;2022-12-18T14:58:56;13.48;;;6.97;;
72060;SDS011;59925;52.136;5.420;2022-12-18T15:01:46;14.65;;;7.22;;
72060;SDS011;59925;52.136;5.420;2022-12-18T15:04:35;16.10;;;7.93;;
72060;SDS011;59925;52.136;5.420;2022-12-18T15:09:40;15.83;;;7.20;;
72060;SDS011;59925;52.136;5.420;2022-12-18T15:12:32;17.35;;;7.45;;
72060;SDS011;59925;52.136;5.420;2022-12-18T15:15:01;12.85;;;6.65;;
72060;SDS011;59925;52.136;5.420;2022-12-18T15:17:28;16.77;;;7.65;;
72060;SDS011;59925;52.136;5.420;2022-12-18T15:20:01;16.92;;;7.47;;
72060;SDS011;59925;52.136;5.420;2022-12-18T15:22:35;16.83;;;7.50;;
72060;SDS011;59925;52.136;5.420;2022-12-18T15:25:03;14.63;;;7.25;;
72060;SDS011;59925;52.136;5.420;2022-12-18T15:27:48;14.50;;;6.80;;
72060;SDS011;59925;52.136;5.420;2022-12-18T15:32:41;17.63;;;8.02;;
72060;SDS011;59925;52.136;5.420;2022-12-18T15:37:34;16.13;;;7.53;;
72060;SDS011;59925;52.136;5.420;2022-12-18T15:40:00;17.85;;;7.47;;
72060;SDS011;59925;52.136;5.420;2022-12-18T15:42:28;17.55;;;8.25;;
72060;SDS011;59925;52.136;5.420;2022-12-18T15:45:14;17.23;;;7.30;;
72060;SDS011;59925;52.136;5.420;2022-12-18T15:47:41;16.17;;;8.03;;
72060;SDS011;59925;52.136;5.420;2022-12-18T15:50:10;17.83;;;7.72;;
72060;SDS011;59925;52.136;5.420;2022-12-18T15:52:39;17.67;;;8.05;;
72060;SDS011;59925;52.136;5.420;2022-12-18T15:55:18;14.90;;;7.97;;
72060;SDS011;59925;52.136;5.420;2022-12-18T15:58:06;16.13;;;7.75;;
72060;SDS011;59925;52.136;5.420;2022-12-18T16:00:34;18.87;;;7.47;;
72060;SDS011;59925;52.136;5.420;2022-12-18T16:03:03;16.52;;;8.35;;
72060;SDS011;59925;52.136;5.420;2022-12-18T16:05:31;18.80;;;8.00;;
72060;SDS011;59925;52.136;5.420;2022-12-18T16:07:58;14.73;;;6.97;;
72060;SDS011;59925;52.136;5.420;2022-12-18T16:10:25;22.33;;;8.15;;
72060;SDS011;59925;52.136;5.420;2022-12-18T16:12:52;16.07;;;7.53;;
72060;SDS011;59925;52.136;5.420;2022-12-18T16:15:18;18.05;;;8.15;;
72060;SDS011;59925;52.136;5.420;2022-12-18T16:17:50;16.58;;;7.00;;
72060;SDS011;59925;52.136;5.420;2022-12-18T16:20:19;17.02;;;7.80;;
72060;SDS011;59925;52.136;5.420;2022-12-18T16:22:47;19.13;;;7.97;;
72060;SDS011;59925;52.136;5.420;2022-12-18T16:25:25;15.37;;;8.00;;
72060;SDS011;59925;52.136;5.420;2022-12-18T16:27:54;19.50;;;8.45;;
72060;SDS011;59925;52.136;5.420;2022-12-18T16:30:23;18.33;;;7.63;;
72060;SDS011;59925;52.136;5.420;2022-12-18T16:32:57;18.98;;;8.75;;
72060;SDS011;59925;52.136;5.420;2022-12-18T16:35:24;18.63;;;8.73;;
72060;SDS011;59925;52.136;5.420;2022-12-18T16:37:52;16.57;;;8.20;;
72060;SDS011;59925;52.136;5.420;2022-12-18T16:40:18;19.67;;;8.43;;
72060;SDS011;59925;52.136;5.420;2022-12-18T16:42:46;17.05;;;8.38;;
72060;SDS011;59925;52.136;5.420;2022-12-18T16:45:14;16.88;;;8.60;;
72060;SDS011;59925;52.136;5.420;2022-12-18T16:47:42;19.15;;;8.77;;
72060;SDS011;59925;52.136;5.420;2022-12-18T16:50:09;19.47;;;8.93;;
72060;SDS011;59925;52.136;5.420;2022-12-18T16:52:36;18.80;;;8.38;;
72060;SDS011;59925;52.136;5.420;2022-12-18T16:55:02;17.92;;;8.52;;
72060;SDS011;59925;52.136;5.420;2022-12-18T16:57:29;17.73;;;9.05;;
72060;SDS011;59925;52.136;5.420;2022-12-18T16:59:55;20.25;;;8.93;;
72060;SDS011;59925;52.136;5.420;2022-12-18T17:02:30;15.03;;;7.53;;
72060;SDS011;59925;52.136;5.420;2022-12-18T17:04:57;20.48;;;9.32;;
72060;SDS011;59925;52.136;5.420;2022-12-18T17:07:24;16.80;;;8.48;;
72060;SDS011;59925;52.136;5.420;2022-12-18T17:09:51;17.25;;;9.18;;
72060;SDS011;59925;52.136;5.420;2022-12-18T17:12:19;14.10;;;7.00;;